sensor_id;sensor_type;location;lat;lon;timestamp;pressure;altitude;pressure_sealevel;temperature;humidity
18784;BME280;9520;50.954;6.968;2023-03-13T00:00:04;99979.50;;;17.97;42.77
18784;BME280;9520;50.954;6.968;2023-03-13T00:00:27;99984.09;;;17.95;42.92
18784;BME280;9520;50.954;6.968;2023-03-13T00:00:49;99976.78;;;17.98;42.72
18784;BME280;9520;50.954;6.968;2023-03-13T00:01:15;99976.94;;;17.95;42.65
18784;BME280;9520;50.954;6.968;2023-03-13T00:01:41;99970.84;;;17.93;42.77
18784;BME280;9520;50.954;6.968;2023-03-13T00:02:03;99971.63;;;17.95;42.94
18784;BME280;9520;50.954;6.968;2023-03-13T00:02:26;99970.31;;;18.02;42.55
18784;BME280;9520;50.954;6.968;2023-03-13T00:02:48;99973.91;;;18.01;42.91
18784;BME280;9520;50.954;6.968;2023-03-13T00:03:10;99977.97;;;17.93;42.67
18784;BME280;9520;50.954;6.968;2023-03-13T00:03:32;99957.16;;;17.84;42.82
18784;BME280;9520;50.954;6.968;2023-03-13T00:03:54;99970.84;;;17.93;43.00
18784;BME280;9520;50.954;6.968;2023-03-13T00:04:17;99958.69;;;17.88;43.07
18784;BME280;9520;50.954;6.968;2023-03-13T00:04:39;99962.63;;;17.96;42.91
18784;BME280;9520;50.954;6.968;2023-03-13T00:05:00;99967.28;;;17.93;42.95
18784;BME280;9520;50.954;6.968;2023-03-13T00:05:22;99951.91;;;17.82;42.79
18784;BME280;9520;50.954;6.968;2023-03-13T00:05:45;99947.50;;;17.81;42.92
18784;BME280;9520;50.954;6.968;2023-03-13T00:06:08;99961.09;;;17.92;43.09
18784;BME280;9520;50.954;6.968;2023-03-13T00:06:31;99955.69;;;17.94;42.96
18784;BME280;9520;50.954;6.968;2023-03-13T00:06:53;99960.22;;;17.92;43.12
18784;BME280;9520;50.954;6.968;2023-03-13T00:07:16;99956.44;;;17.96;43.04
18784;BME280;9520;50.954;6.968;2023-03-13T00:07:38;99950.28;;;17.95;42.88
18784;BME280;9520;50.954;6.968;2023-03-13T00:08:00;99947.41;;;17.98;42.95
18784;BME280;9520;50.954;6.968;2023-03-13T00:08:23;99948.34;;;17.97;43.01
18784;BME280;9520;50.954;6.968;2023-03-13T00:08:45;99962.31;;;18.02;42.93
18784;BME280;9520;50.954;6.968;2023-03-13T00:09:09;99958.75;;;18.02;42.98
18784;BME280;9520;50.954;6.968;2023-03-13T00:09:31;99956.09;;;18.02;42.87
18784;BME280;9520;50.954;6.968;2023-03-13T00:09:53;99955.22;;;18.01;42.86
18784;BME280;9520;50.954;6.968;2023-03-13T00:10:15;99958.00;;;18.00;42.89
18784;BME280;9520;50.954;6.968;2023-03-13T00:10:38;99933.81;;;17.87;43.12
18784;BME280;9520;50.954;6.968;2023-03-13T00:11:01;99959.72;;;18.01;43.11
18784;BME280;9520;50.954;6.968;2023-03-13T00:11:23;99953.44;;;18.02;43.11
18784;BME280;9520;50.954;6.968;2023-03-13T00:11:46;99949.81;;;18.03;43.03
18784;BME280;9520;50.954;6.968;2023-03-13T00:12:08;99950.59;;;18.05;42.98
18784;BME280;9520;50.954;6.968;2023-03-13T00:12:31;99947.16;;;18.03;42.74
18784;BME280;9520;50.954;6.968;2023-03-13T00:12:52;99946.56;;;17.98;43.03
18784;BME280;9520;50.954;6.968;2023-03-13T00:13:16;99942.25;;;17.95;43.21
18784;BME280;9520;50.954;6.968;2023-03-13T00:13:38;99954.81;;;17.93;43.03
18784;BME280;9520;50.954;6.968;2023-03-13T00:14:02;99933.16;;;17.84;43.11
18784;BME280;9520;50.954;6.968;2023-03-13T00:14:24;99940.69;;;17.91;43.39
18784;BME280;9520;50.954;6.968;2023-03-13T00:14:45;99943.38;;;17.91;43.17
18784;BME280;9520;50.954;6.968;2023-03-13T00:15:08;99940.69;;;17.91;43.28
18784;BME280;9520;50.954;6.968;2023-03-13T00:15:30;99931.16;;;17.87;43.16
18784;BME280;9520;50.954;6.968;2023-03-13T00:15:59;99923.50;;;17.81;43.25
18784;BME280;9520;50.954;6.968;2023-03-13T00:16:21;99934.53;;;17.91;43.24
18784;BME280;9520;50.954;6.968;2023-03-13T00:16:43;99928.94;;;17.95;43.25
18784;BME280;9520;50.954;6.968;2023-03-13T00:17:06;99928.94;;;17.95;43.08
18784;BME280;9520;50.954;6.968;2023-03-13T00:17:27;99931.66;;;17.94;43.40
18784;BME280;9520;50.954;6.968;2023-03-13T00:17:49;99929.75;;;17.96;43.46
18784;BME280;9520;50.954;6.968;2023-03-13T00:18:11;99928.06;;;17.95;43.18
18784;BME280;9520;50.954;6.968;2023-03-13T00:18:34;99918.53;;;17.91;43.31
18784;BME280;9520;50.954;6.968;2023-03-13T00:18:57;99918.53;;;17.91;43.26
18784;BME280;9520;50.954;6.968;2023-03-13T00:19:18;99932.81;;;17.90;43.47
18784;BME280;9520;50.954;6.968;2023-03-13T00:19:41;99916.09;;;17.86;43.42
18784;BME280;9520;50.954;6.968;2023-03-13T00:20:04;99917.13;;;17.84;43.65
18784;BME280;9520;50.954;6.968;2023-03-13T00:20:28;99924.09;;;17.86;43.56
18784;BME280;9520;50.954;6.968;2023-03-13T00:20:56;99915.34;;;17.84;43.69
18784;BME280;9520;50.954;6.968;2023-03-13T00:21:21;99920.00;;;17.81;43.60
18784;BME280;9520;50.954;6.968;2023-03-13T00:21:43;99919.81;;;17.84;43.47
18784;BME280;9520;50.954;6.968;2023-03-13T00:22:05;99919.63;;;17.87;43.48
18784;BME280;9520;50.954;6.968;2023-03-13T00:22:28;99910.84;;;17.85;43.65
18784;BME280;9520;50.954;6.968;2023-03-13T00:22:49;99915.41;;;17.83;43.83
18784;BME280;9520;50.954;6.968;2023-03-13T00:23:11;99917.91;;;17.86;43.61
18784;BME280;9520;50.954;6.968;2023-03-13T00:23:34;99911.72;;;17.85;43.75
18784;BME280;9520;50.954;6.968;2023-03-13T00:23:58;99909.22;;;17.82;43.40
18784;BME280;9520;50.954;6.968;2023-03-13T00:24:20;99911.63;;;17.87;43.59
18784;BME280;9520;50.954;6.968;2023-03-13T00:24:42;99908.94;;;17.87;43.42
18784;BME280;9520;50.954;6.968;2023-03-13T00:25:04;99905.25;;;17.89;43.23
18784;BME280;9520;50.954;6.968;2023-03-13T00:25:27;99911.34;;;17.91;43.37
18784;BME280;9520;50.954;6.968;2023-03-13T00:25:55;99906.97;;;17.90;43.60
18784;BME280;9520;50.954;6.968;2023-03-13T00:26:19;99894.50;;;17.91;43.39
18784;BME280;9520;50.954;6.968;2023-03-13T00:26:41;99903.44;;;17.90;43.57
18784;BME280;9520;50.954;6.968;2023-03-13T00:27:04;99909.53;;;17.92;43.56
18784;BME280;9520;50.954;6.968;2023-03-13T00:27:27;99900.94;;;17.87;43.63
18784;BME280;9520;50.954;6.968;2023-03-13T00:27:52;99894.75;;;17.86;43.66
18784;BME280;9520;50.954;6.968;2023-03-13T00:28:14;99893.66;;;17.90;43.68
18784;BME280;9520;50.954;6.968;2023-03-13T00:28:39;99897.94;;;17.93;43.31
18784;BME280;9520;50.954;6.968;2023-03-13T00:29:01;99883.66;;;17.78;43.69
18784;BME280;9520;50.954;6.968;2023-03-13T00:29:22;99899.25;;;17.86;43.52
18784;BME280;9520;50.954;6.968;2023-03-13T00:29:44;99896.47;;;17.87;43.68
18784;BME280;9520;50.954;6.968;2023-03-13T00:30:09;99892.78;;;17.90;43.37
18784;BME280;9520;50.954;6.968;2023-03-13T00:30:32;99900.50;;;17.94;43.29
18784;BME280;9520;50.954;6.968;2023-03-13T00:31:02;99897.66;;;17.97;43.37
18784;BME280;9520;50.954;6.968;2023-03-13T00:31:25;99885.19;;;17.98;43.12
18784;BME280;9520;50.954;6.968;2023-03-13T00:31:49;99887.84;;;17.98;43.24
18784;BME280;9520;50.954;6.968;2023-03-13T00:32:11;99885.97;;;18.00;43.40
18784;BME280;9520;50.954;6.968;2023-03-13T00:32:33;99882.31;;;18.01;43.33
18784;BME280;9520;50.954;6.968;2023-03-13T00:33:01;99888.53;;;18.01;43.28
18784;BME280;9520;50.954;6.968;2023-03-13T00:33:23;99884.91;;;18.02;43.33
18784;BME280;9520;50.954;6.968;2023-03-13T00:33:47;99882.16;;;18.04;43.30
18784;BME280;9520;50.954;6.968;2023-03-13T00:34:09;99875.97;;;18.03;43.26
18784;BME280;9520;50.954;6.968;2023-03-13T00:34:31;99882.16;;;18.04;43.24
18784;BME280;9520;50.954;6.968;2023-03-13T00:34:53;99876.16;;;18.00;43.13
18784;BME280;9520;50.954;6.968;2023-03-13T00:35:15;99858.78;;;17.93;43.07
18784;BME280;9520;50.954;6.968;2023-03-13T00:35:42;99878.97;;;17.97;43.61
18784;BME280;9520;50.954;6.968;2023-03-13T00:36:07;99876.22;;;17.99;43.60
18784;BME280;9520;50.954;6.968;2023-03-13T00:36:30;99870.91;;;17.99;43.50
18784;BME280;9520;50.954;6.968;2023-03-13T00:36:55;99872.69;;;17.98;43.54
18784;BME280;9520;50.954;6.968;2023-03-13T00:37:17;99873.50;;;18.00;43.28
18784;BME280;9520;50.954;6.968;2023-03-13T00:37:38;99853.69;;;17.89;43.40
18784;BME280;9520;50.954;6.968;2023-03-13T00:38:00;99870.69;;;18.02;43.36
18784;BME280;9520;50.954;6.968;2023-03-13T00:38:23;99872.91;;;17.95;43.55
18784;BME280;9520;50.954;6.968;2023-03-13T00:38:45;99871.91;;;17.96;43.42
18784;BME280;9520;50.954;6.968;2023-03-13T00:39:08;99860.50;;;17.94;43.30
18784;BME280;9520;50.954;6.968;2023-03-13T00:39:29;99867.63;;;17.94;43.33
18784;BME280;9520;50.954;6.968;2023-03-13T00:39:55;99869.44;;;17.93;43.43
18784;BME280;9520;50.954;6.968;2023-03-13T00:40:16;99853.69;;;17.89;43.63
18784;BME280;9520;50.954;6.968;2023-03-13T00:40:39;99870.03;;;17.98;43.61
18784;BME280;9520;50.954;6.968;2023-03-13T00:41:03;99868.91;;;18.02;43.52
18784;BME280;9520;50.954;6.968;2023-03-13T00:41:26;99871.28;;;18.07;43.48
18784;BME280;9520;50.954;6.968;2023-03-13T00:41:49;99849.28;;;18.03;43.47
18784;BME280;9520;50.954;6.968;2023-03-13T00:42:11;99864.66;;;18.14;43.37
18784;BME280;9520;50.954;6.968;2023-03-13T00:42:33;99860.25;;;18.13;43.10
18784;BME280;9520;50.954;6.968;2023-03-13T00:42:55;99872.31;;;18.20;42.97
18784;BME280;9520;50.954;6.968;2023-03-13T00:43:16;99870.38;;;18.22;43.21
18784;BME280;9520;50.954;6.968;2023-03-13T00:43:42;99872.31;;;18.20;43.29
18784;BME280;9520;50.954;6.968;2023-03-13T00:44:04;99855.56;;;18.02;43.26
18784;BME280;9520;50.954;6.968;2023-03-13T00:44:26;99866.78;;;17.78;44.04
18784;BME280;9520;50.954;6.968;2023-03-13T00:44:49;99853.91;;;17.70;43.91
18784;BME280;9520;50.954;6.968;2023-03-13T00:45:11;99872.56;;;17.86;44.12
18784;BME280;9520;50.954;6.968;2023-03-13T00:45:33;99875.91;;;17.89;44.01
18784;BME280;9520;50.954;6.968;2023-03-13T00:45:55;99866.09;;;17.90;44.24
18784;BME280;9520;50.954;6.968;2023-03-13T00:46:19;99868.66;;;17.91;43.97
18784;BME280;9520;50.954;6.968;2023-03-13T00:46:42;99867.56;;;17.95;43.89
18784;BME280;9520;50.954;6.968;2023-03-13T00:47:04;99869.09;;;17.99;44.21
18784;BME280;9520;50.954;6.968;2023-03-13T00:47:27;99872.50;;;18.01;44.56
18784;BME280;9520;50.954;6.968;2023-03-13T00:47:49;99827.66;;;17.78;44.52
18784;BME280;9520;50.954;6.968;2023-03-13T00:48:10;99867.16;;;18.01;44.35
18784;BME280;9520;50.954;6.968;2023-03-13T00:48:33;99866.31;;;18.01;44.18
18784;BME280;9520;50.954;6.968;2023-03-13T00:48:55;99869.50;;;18.07;44.16
18784;BME280;9520;50.954;6.968;2023-03-13T00:49:17;99873.03;;;18.08;44.28
18784;BME280;9520;50.954;6.968;2023-03-13T00:49:39;99867.09;;;18.03;44.39
18784;BME280;9520;50.954;6.968;2023-03-13T00:50:01;99869.75;;;18.03;44.46
18784;BME280;9520;50.954;6.968;2023-03-13T00:50:23;99868.31;;;17.97;44.28
18784;BME280;9520;50.954;6.968;2023-03-13T00:50:45;99863.16;;;17.94;44.32
18784;BME280;9520;50.954;6.968;2023-03-13T00:51:07;99852.25;;;17.83;44.49
18784;BME280;9520;50.954;6.968;2023-03-13T00:51:30;99865.72;;;17.96;44.68
18784;BME280;9520;50.954;6.968;2023-03-13T00:51:52;99861.94;;;18.00;44.66
18784;BME280;9520;50.954;6.968;2023-03-13T00:52:14;99812.69;;;17.76;45.05
18784;BME280;9520;50.954;6.968;2023-03-13T00:52:36;99860.88;;;18.02;44.72
18784;BME280;9520;50.954;6.968;2023-03-13T00:53:01;99850.06;;;18.05;44.89
18784;BME280;9520;50.954;6.968;2023-03-13T00:53:24;99844.88;;;18.02;44.67
18784;BME280;9520;50.954;6.968;2023-03-13T00:53:46;99823.69;;;17.85;44.76
18784;BME280;9520;50.954;6.968;2023-03-13T00:54:08;99864.34;;;18.04;44.51
18784;BME280;9520;50.954;6.968;2023-03-13T00:54:31;99847.75;;;17.99;44.26
18784;BME280;9520;50.954;6.968;2023-03-13T00:54:53;99814.13;;;17.81;44.59
18784;BME280;9520;50.954;6.968;2023-03-13T00:55:14;99852.81;;;18.04;44.45
18784;BME280;9520;50.954;6.968;2023-03-13T00:55:37;99791.19;;;17.63;44.54
18784;BME280;9520;50.954;6.968;2023-03-13T00:56:00;99845.06;;;17.99;44.39
18784;BME280;9520;50.954;6.968;2023-03-13T00:56:23;99835.25;;;18.00;44.56
18784;BME280;9520;50.954;6.968;2023-03-13T00:56:45;99798.38;;;17.77;44.30
18784;BME280;9520;50.954;6.968;2023-03-13T00:57:07;99783.50;;;17.73;44.64
18784;BME280;9520;50.954;6.968;2023-03-13T00:57:29;99854.34;;;18.08;44.61
18784;BME280;9520;50.954;6.968;2023-03-13T00:57:53;99844.53;;;18.08;44.60
18784;BME280;9520;50.954;6.968;2023-03-13T00:58:14;99837.31;;;18.10;44.81
18784;BME280;9520;50.954;6.968;2023-03-13T00:58:38;99843.47;;;18.11;45.09
18784;BME280;9520;50.954;6.968;2023-03-13T00:59:01;99845.03;;;18.15;44.68
18784;BME280;9520;50.954;6.968;2023-03-13T00:59:24;99827.94;;;18.03;44.73
18784;BME280;9520;50.954;6.968;2023-03-13T00:59:46;99827.16;;;18.01;44.72
18784;BME280;9520;50.954;6.968;2023-03-13T01:00:09;99843.31;;;18.14;44.85
18784;BME280;9520;50.954;6.968;2023-03-13T01:00:31;99843.31;;;18.14;44.56
18784;BME280;9520;50.954;6.968;2023-03-13T01:00:54;99833.84;;;18.08;44.81
18784;BME280;9520;50.954;6.968;2023-03-13T01:01:18;99842.13;;;18.04;45.02
18784;BME280;9520;50.954;6.968;2023-03-13T01:01:42;99841.28;;;18.03;44.89
18784;BME280;9520;50.954;6.968;2023-03-13T01:02:04;99843.84;;;18.05;45.00
18784;BME280;9520;50.954;6.968;2023-03-13T01:02:26;99830.00;;;17.98;44.79
18784;BME280;9520;50.954;6.968;2023-03-13T01:02:48;99839.38;;;18.05;45.02
18784;BME280;9520;50.954;6.968;2023-03-13T01:03:10;99845.22;;;17.96;45.12
18784;BME280;9520;50.954;6.968;2023-03-13T01:03:32;99837.34;;;17.95;44.98
18784;BME280;9520;50.954;6.968;2023-03-13T01:03:57;99840.09;;;17.93;44.92
18784;BME280;9520;50.954;6.968;2023-03-13T01:04:20;99828.56;;;17.93;44.83
18784;BME280;9520;50.954;6.968;2023-03-13T01:04:43;99846.59;;;18.03;44.96
18784;BME280;9520;50.954;6.968;2023-03-13T01:05:06;99841.34;;;18.02;45.04
18784;BME280;9520;50.954;6.968;2023-03-13T01:05:28;99844.13;;;18.00;45.24
18784;BME280;9520;50.954;6.968;2023-03-13T01:05:55;99836.78;;;18.04;44.99
18784;BME280;9520;50.954;6.968;2023-03-13T01:06:22;99845.47;;;18.07;44.65
18784;BME280;9520;50.954;6.968;2023-03-13T01:06:44;99829.66;;;18.04;44.93
18784;BME280;9520;50.954;6.968;2023-03-13T01:07:05;99844.16;;;18.15;44.85
18784;BME280;9520;50.954;6.968;2023-03-13T01:07:28;99828.59;;;18.07;44.63
18784;BME280;9520;50.954;6.968;2023-03-13T01:07:51;99844.25;;;18.13;44.75
18784;BME280;9520;50.954;6.968;2023-03-13T01:08:12;99834.53;;;18.12;44.64
18784;BME280;9520;50.954;6.968;2023-03-13T01:08:35;99834.44;;;18.13;44.62
18784;BME280;9520;50.954;6.968;2023-03-13T01:08:58;99836.31;;;18.11;44.65
18784;BME280;9520;50.954;6.968;2023-03-13T01:09:21;99839.53;;;18.02;44.57
18784;BME280;9520;50.954;6.968;2023-03-13T01:09:43;99835.25;;;18.00;44.75
18784;BME280;9520;50.954;6.968;2023-03-13T01:10:06;99839.75;;;17.99;44.82
18784;BME280;9520;50.954;6.968;2023-03-13T01:10:28;99838.69;;;18.02;45.07
18784;BME280;9520;50.954;6.968;2023-03-13T01:10:49;99817.22;;;17.89;45.00
18784;BME280;9520;50.954;6.968;2023-03-13T01:11:15;99833.19;;;18.05;45.14
18784;BME280;9520;50.954;6.968;2023-03-13T01:11:40;99828.88;;;18.02;44.71
18784;BME280;9520;50.954;6.968;2023-03-13T01:12:46;99835.94;;;18.03;44.88
18784;BME280;9520;50.954;6.968;2023-03-13T01:13:08;99827.34;;;17.98;44.95
18784;BME280;9520;50.954;6.968;2023-03-13T01:13:31;99837.66;;;18.04;44.86
18784;BME280;9520;50.954;6.968;2023-03-13T01:13:54;99834.78;;;18.07;44.92
18784;BME280;9520;50.954;6.968;2023-03-13T01:14:19;99826.19;;;18.02;45.04
18784;BME280;9520;50.954;6.968;2023-03-13T01:14:42;99828.59;;;18.07;45.22
18784;BME280;9520;50.954;6.968;2023-03-13T01:15:04;99837.31;;;18.10;45.05
18784;BME280;9520;50.954;6.968;2023-03-13T01:15:26;99832.72;;;18.12;45.14
18784;BME280;9520;50.954;6.968;2023-03-13T01:15:48;99834.44;;;18.13;44.95
18784;BME280;9520;50.954;6.968;2023-03-13T01:16:11;99829.03;;;18.15;45.11
18784;BME280;9520;50.954;6.968;2023-03-13T01:16:35;99828.16;;;18.15;45.05
18784;BME280;9520;50.954;6.968;2023-03-13T01:16:58;99832.53;;;18.16;45.06
18784;BME280;9520;50.954;6.968;2023-03-13T01:17:19;99813.38;;;18.09;44.86
18784;BME280;9520;50.954;6.968;2023-03-13T01:17:42;99821.72;;;18.03;45.13
18784;BME280;9520;50.954;6.968;2023-03-13T01:18:04;99823.38;;;18.05;45.12
18784;BME280;9520;50.954;6.968;2023-03-13T01:18:27;99823.09;;;18.10;45.05
18784;BME280;9520;50.954;6.968;2023-03-13T01:18:51;99815.09;;;18.10;44.98
18784;BME280;9520;50.954;6.968;2023-03-13T01:19:15;99820.44;;;18.10;44.78
18784;BME280;9520;50.954;6.968;2023-03-13T01:19:39;99827.09;;;18.17;44.82
18784;BME280;9520;50.954;6.968;2023-03-13T01:20:00;99812.72;;;18.20;44.82
18784;BME280;9520;50.954;6.968;2023-03-13T01:20:22;99815.56;;;18.17;44.48
18784;BME280;9520;50.954;6.968;2023-03-13T01:20:44;99822.97;;;18.11;44.99
18784;BME280;9520;50.954;6.968;2023-03-13T01:21:08;99821.00;;;18.15;44.91
18784;BME280;9520;50.954;6.968;2023-03-13T01:21:30;99816.41;;;18.17;44.84
18784;BME280;9520;50.954;6.968;2023-03-13T01:21:52;99819.75;;;18.21;44.53
18784;BME280;9520;50.954;6.968;2023-03-13T01:22:14;99821.41;;;18.23;44.66
18784;BME280;9520;50.954;6.968;2023-03-13T01:22:36;99794.41;;;18.13;45.05
18784;BME280;9520;50.954;6.968;2023-03-13T01:22:58;99819.50;;;18.25;44.73
18784;BME280;9520;50.954;6.968;2023-03-13T01:23:20;99815.84;;;18.26;44.78
18784;BME280;9520;50.954;6.968;2023-03-13T01:23:41;99815.97;;;18.25;44.65
18784;BME280;9520;50.954;6.968;2023-03-13T01:24:05;99815.97;;;18.25;44.72
18784;BME280;9520;50.954;6.968;2023-03-13T01:24:26;99816.72;;;18.27;44.56
18784;BME280;9520;50.954;6.968;2023-03-13T01:24:48;99811.50;;;18.25;44.84
18784;BME280;9520;50.954;6.968;2023-03-13T01:25:13;99815.97;;;18.25;44.63
18784;BME280;9520;50.954;6.968;2023-03-13T01:25:37;99818.44;;;18.28;44.59
18784;BME280;9520;50.954;6.968;2023-03-13T01:26:03;99813.97;;;18.28;44.65
18784;BME280;9520;50.954;6.968;2023-03-13T01:26:26;99812.91;;;18.31;44.55
18784;BME280;9520;50.954;6.968;2023-03-13T01:26:49;99816.34;;;18.33;44.58
18784;BME280;9520;50.954;6.968;2023-03-13T01:27:13;99811.88;;;18.33;44.38
18784;BME280;9520;50.954;6.968;2023-03-13T01:27:36;99812.53;;;18.37;44.44
18784;BME280;9520;50.954;6.968;2023-03-13T01:27:57;99808.72;;;18.41;44.43
18784;BME280;9520;50.954;6.968;2023-03-13T01:28:19;99810.53;;;18.40;44.46
18784;BME280;9520;50.954;6.968;2023-03-13T01:28:41;99815.13;;;18.38;44.57
18784;BME280;9520;50.954;6.968;2023-03-13T01:29:04;99808.84;;;18.39;44.56
18784;BME280;9520;50.954;6.968;2023-03-13T01:29:27;99802.66;;;18.39;44.31
18784;BME280;9520;50.954;6.968;2023-03-13T01:29:49;99804.44;;;18.38;44.51
18784;BME280;9520;50.954;6.968;2023-03-13T01:30:11;99798.06;;;18.41;44.35
18784;BME280;9520;50.954;6.968;2023-03-13T01:30:34;99808.72;;;18.41;44.34
18784;BME280;9520;50.954;6.968;2023-03-13T01:30:55;99795.50;;;18.39;44.37
18784;BME280;9520;50.954;6.968;2023-03-13T01:31:19;99789.88;;;18.30;44.36
18784;BME280;9520;50.954;6.968;2023-03-13T01:31:41;99810.28;;;18.45;44.19
18784;BME280;9520;50.954;6.968;2023-03-13T01:32:04;99794.72;;;18.37;44.47
18784;BME280;9520;50.954;6.968;2023-03-13T01:32:27;99807.69;;;18.43;44.40
18784;BME280;9520;50.954;6.968;2023-03-13T01:32:49;99790.81;;;18.43;44.52
18784;BME280;9520;50.954;6.968;2023-03-13T01:33:12;99794.63;;;18.39;44.47
18784;BME280;9520;50.954;6.968;2023-03-13T01:33:35;99808.38;;;18.47;44.35
18784;BME280;9520;50.954;6.968;2023-03-13T01:34:00;99769.53;;;18.27;44.38
18784;BME280;9520;50.954;6.968;2023-03-13T01:34:22;99790.63;;;18.46;44.45
18784;BME280;9520;50.954;6.968;2023-03-13T01:34:45;99788.16;;;18.43;44.34
18784;BME280;9520;50.954;6.968;2023-03-13T01:35:08;99800.56;;;18.44;44.35
18784;BME280;9520;50.954;6.968;2023-03-13T01:35:30;99797.19;;;18.40;44.33
18784;BME280;9520;50.954;6.968;2023-03-13T01:36:00;99777.25;;;18.32;44.71
18784;BME280;9520;50.954;6.968;2023-03-13T01:36:24;99779.34;;;18.27;44.63
18784;BME280;9520;50.954;6.968;2023-03-13T01:36:47;99782.22;;;18.24;44.74
18784;BME280;9520;50.954;6.968;2023-03-13T01:37:11;99790.81;;;18.29;44.85
18784;BME280;9520;50.954;6.968;2023-03-13T01:37:32;99781.44;;;18.22;44.70
18784;BME280;9520;50.954;6.968;2023-03-13T01:37:54;99787.66;;;18.22;44.99
18784;BME280;9520;50.954;6.968;2023-03-13T01:38:16;99781.56;;;18.20;45.00
18784;BME280;9520;50.954;6.968;2023-03-13T01:38:39;99785.06;;;18.21;45.00
18784;BME280;9520;50.954;6.968;2023-03-13T01:39:01;99745.47;;;17.85;45.11
18784;BME280;9520;50.954;6.968;2023-03-13T01:39:22;99749.44;;;17.78;45.32
18784;BME280;9520;50.954;6.968;2023-03-13T01:39:44;99787.91;;;18.03;45.34
18784;BME280;9520;50.954;6.968;2023-03-13T01:40:08;99779.63;;;18.08;45.28
18784;BME280;9520;50.954;6.968;2023-03-13T01:40:30;99782.19;;;18.09;45.21
18784;BME280;9520;50.954;6.968;2023-03-13T01:40:52;99786.47;;;18.12;45.52
18784;BME280;9520;50.954;6.968;2023-03-13T01:41:14;99785.44;;;18.15;45.18
18784;BME280;9520;50.954;6.968;2023-03-13T01:41:37;99783.53;;;18.17;45.32
18784;BME280;9520;50.954;6.968;2023-03-13T01:41:59;99786.13;;;18.18;45.52
18784;BME280;9520;50.954;6.968;2023-03-13T01:42:21;99775.34;;;18.20;45.44
18784;BME280;9520;50.954;6.968;2023-03-13T01:42:51;99782.50;;;18.19;45.32
18784;BME280;9520;50.954;6.968;2023-03-13T01:43:18;99779.72;;;18.21;45.26
18784;BME280;9520;50.954;6.968;2023-03-13T01:43:50;99777.63;;;18.26;45.10
18784;BME280;9520;50.954;6.968;2023-03-13T01:44:20;99779.34;;;18.27;45.20
18784;BME280;9520;50.954;6.968;2023-03-13T01:44:51;99768.38;;;18.31;45.13
18784;BME280;9520;50.954;6.968;2023-03-13T01:46:12;99768.09;;;18.36;45.02
18784;BME280;9520;50.954;6.968;2023-03-13T01:46:42;99770.13;;;18.32;45.04
18784;BME280;9520;50.954;6.968;2023-03-13T01:47:25;99766.50;;;18.33;44.95
18784;BME280;9520;50.954;6.968;2023-03-13T01:48:00;99768.28;;;18.19;45.30
18784;BME280;9520;50.954;6.968;2023-03-13T01:48:42;99758.75;;;18.15;45.40
18784;BME280;9520;50.954;6.968;2023-03-13T01:49:10;99757.03;;;18.13;45.37
18784;BME280;9520;50.954;6.968;2023-03-13T01:49:53;99766.78;;;18.15;45.42
18784;BME280;9520;50.954;6.968;2023-03-13T01:50:45;99766.19;;;18.09;45.82
18784;BME280;9520;50.954;6.968;2023-03-13T01:51:23;99765.78;;;18.16;45.90
18784;BME280;9520;50.954;6.968;2023-03-13T01:51:49;99770.97;;;18.19;45.59
18784;BME280;9520;50.954;6.968;2023-03-13T01:52:15;99761.88;;;18.07;45.79
18784;BME280;9520;50.954;6.968;2023-03-13T01:52:44;99771.13;;;18.16;45.70
18784;BME280;9520;50.954;6.968;2023-03-13T01:53:10;99768.47;;;18.16;45.79
18784;BME280;9520;50.954;6.968;2023-03-13T01:53:36;99761.88;;;18.07;46.00
18784;BME280;9520;50.954;6.968;2023-03-13T01:54:04;99756.38;;;18.10;45.90
18784;BME280;9520;50.954;6.968;2023-03-13T01:54:29;99757.91;;;18.14;46.01
18784;BME280;9520;50.954;6.968;2023-03-13T01:54:56;99763.31;;;18.12;45.96
18784;BME280;9520;50.954;6.968;2023-03-13T01:55:21;99759.50;;;18.17;45.95
18784;BME280;9520;50.954;6.968;2023-03-13T01:55:46;99757.53;;;18.20;46.00
18784;BME280;9520;50.954;6.968;2023-03-13T01:56:12;99752.28;;;18.19;46.08
18784;BME280;9520;50.954;6.968;2023-03-13T01:56:42;99720.53;;;18.00;45.84
18784;BME280;9520;50.954;6.968;2023-03-13T01:57:08;99756.47;;;18.23;45.97
18784;BME280;9520;50.954;6.968;2023-03-13T01:57:34;99750.63;;;18.16;45.81
18784;BME280;9520;50.954;6.968;2023-03-13T01:57:59;99749.25;;;18.25;45.93
18784;BME280;9520;50.954;6.968;2023-03-13T01:58:24;99740.94;;;18.15;45.83
18784;BME280;9520;50.954;6.968;2023-03-13T01:58:50;99721.34;;;17.86;46.15
18784;BME280;9520;50.954;6.968;2023-03-13T01:59:14;99754.63;;;17.95;46.52
18784;BME280;9520;50.954;6.968;2023-03-13T01:59:40;99743.53;;;17.87;46.45
18784;BME280;9520;50.954;6.968;2023-03-13T02:00:09;99750.31;;;17.92;46.67
18784;BME280;9520;50.954;6.968;2023-03-13T02:00:36;99750.03;;;17.97;46.42
18784;BME280;9520;50.954;6.968;2023-03-13T02:01:04;99735.69;;;17.69;46.96
18784;BME280;9520;50.954;6.968;2023-03-13T02:01:26;99736.72;;;17.67;47.32
18784;BME280;9520;50.954;6.968;2023-03-13T02:01:50;99741.50;;;17.76;47.14
18784;BME280;9520;50.954;6.968;2023-03-13T02:02:15;99731.44;;;17.81;46.97
18784;BME280;9520;50.954;6.968;2023-03-13T02:02:40;99733.66;;;17.89;46.67
18784;BME280;9520;50.954;6.968;2023-03-13T02:03:05;99730.03;;;17.90;46.88
18784;BME280;9520;50.954;6.968;2023-03-13T02:03:29;99718.31;;;17.92;46.67
18784;BME280;9520;50.954;6.968;2023-03-13T02:03:54;99724.13;;;17.99;46.69
18784;BME280;9520;50.954;6.968;2023-03-13T02:04:19;99726.81;;;17.99;46.64
18784;BME280;9520;50.954;6.968;2023-03-13T02:04:46;99725.94;;;17.98;46.80
18784;BME280;9520;50.954;6.968;2023-03-13T02:05:08;99727.47;;;18.02;46.59
18784;BME280;9520;50.954;6.968;2023-03-13T02:05:30;99720.31;;;18.03;46.64
18784;BME280;9520;50.954;6.968;2023-03-13T02:05:54;99719.56;;;18.01;46.63
18784;BME280;9520;50.954;6.968;2023-03-13T02:06:17;99728.63;;;17.98;46.70
18784;BME280;9520;50.954;6.968;2023-03-13T02:06:40;99724.41;;;17.80;46.83
18784;BME280;9520;50.954;6.968;2023-03-13T02:07:07;99715.59;;;17.64;47.54
18784;BME280;9520;50.954;6.968;2023-03-13T02:07:37;99717.69;;;17.73;47.26
18784;BME280;9520;50.954;6.968;2023-03-13T02:08:02;99706.84;;;17.76;47.50
18784;BME280;9520;50.954;6.968;2023-03-13T02:08:30;99714.47;;;17.82;47.21